Terminal Aerodrome Forecast
Issued by NWS Anchorage, AK

Home | Current Version | Previous Version | Text Only | Print | Product List | Glossary On
Versions: 1 2 3 4 5 6 7 8 9 10 11 12 13 14 15 16 17 18 19 20 21 22 23 24 25
000
FTAK31 PANC 310940 AAB
TAFANC
TAF AMD
PANC 310940Z 3110/0112 15014G22KT P6SM FEW060 SCT100 SCT200
     FM311200 VRB04KT P6SM FEW060 SCT100
     FM312300 16014G24KT P6SM FEW070 SCT200
     FM011000 VRB04KT P6SM SCT120=

USA.gov is the U.S. government's official web portal to all federal, state and local government web resources and services.